createdAt,value
2022-09-20T00:01:17.195Z,994.1
2022-09-20T00:03:43.821Z,994
2022-09-20T00:06:10.433Z,994
2022-09-20T00:08:37.057Z,993.9
2022-09-20T00:13:30.330Z,994
2022-09-20T00:15:55.471Z,994
2022-09-20T00:18:22.082Z,994
2022-09-20T00:20:48.713Z,994
2022-09-20T00:23:15.339Z,994
2022-09-20T00:25:41.962Z,993.9
2022-09-20T00:28:08.585Z,994
2022-09-20T00:30:35.209Z,994
2022-09-20T00:33:01.823Z,994
2022-09-20T00:35:28.445Z,994
2022-09-20T00:37:55.065Z,994
2022-09-20T00:40:21.703Z,994
2022-09-20T00:42:48.322Z,993.9
2022-09-20T00:45:14.947Z,993.8
2022-09-20T00:47:40.073Z,993.9
2022-09-20T00:50:06.693Z,993.9
2022-09-20T00:52:33.314Z,993.9
2022-09-20T00:54:59.937Z,993.9
2022-09-20T00:57:26.565Z,994
2022-09-20T00:59:53.177Z,993.9
2022-09-20T01:02:19.809Z,993.9
2022-09-20T01:04:46.438Z,993.9
2022-09-20T01:07:13.046Z,993.9
2022-09-20T01:09:39.684Z,993.9
2022-09-20T01:12:06.289Z,993.9
2022-09-20T01:14:32.921Z,993.9
2022-09-20T01:16:59.542Z,994
2022-09-20T01:19:24.684Z,993.9
2022-09-20T01:21:51.286Z,993.9
2022-09-20T01:24:17.923Z,994
2022-09-20T01:26:44.535Z,994
2022-09-20T01:29:11.170Z,993.9
2022-09-20T01:31:37.788Z,993.9
2022-09-20T01:34:04.414Z,993.9
2022-09-20T01:36:31.024Z,993.9
2022-09-20T01:41:24.279Z,993.9
2022-09-20T01:43:50.900Z,993.9
2022-09-20T01:46:17.512Z,993.9
2022-09-20T01:48:44.134Z,993.8
2022-09-20T01:51:09.275Z,993.8
2022-09-20T01:53:35.908Z,993.8
2022-09-20T01:56:02.516Z,993.9
2022-09-20T01:58:29.135Z,993.8
2022-09-20T02:00:55.769Z,993.8
2022-09-20T02:03:22.386Z,993.8
2022-09-20T02:05:49.011Z,993.8
2022-09-20T02:08:15.644Z,993.7
2022-09-20T02:10:42.271Z,993.7
2022-09-20T02:13:08.890Z,993.7
2022-09-20T02:15:35.495Z,993.8
2022-09-20T02:18:02.122Z,993.8
2022-09-20T02:20:28.747Z,993.8
2022-09-20T02:22:53.882Z,993.8
2022-09-20T02:25:20.508Z,993.8
2022-09-20T02:27:47.121Z,993.8
2022-09-20T02:30:13.745Z,993.8
2022-09-20T02:32:40.372Z,993.8
2022-09-20T02:35:06.980Z,993.9
2022-09-20T02:37:33.623Z,993.8
2022-09-20T02:40:00.244Z,993.8
2022-09-20T02:42:26.861Z,993.8
2022-09-20T02:44:53.480Z,993.8
2022-09-20T02:47:20.097Z,993.8
2022-09-20T02:49:46.722Z,993.8
2022-09-20T02:52:13.356Z,993.8
2022-09-20T02:54:38.475Z,993.7
2022-09-20T02:57:05.103Z,993.8
2022-09-20T02:59:31.711Z,993.8
2022-09-20T03:01:58.342Z,993.9
2022-09-20T03:04:24.975Z,993.9
2022-09-20T03:11:44.829Z,994
2022-09-20T03:14:11.462Z,994
2022-09-20T03:16:38.074Z,994.1
2022-09-20T03:19:04.706Z,994
2022-09-20T03:21:31.339Z,994
2022-09-20T03:23:57.957Z,993.9
2022-09-20T03:26:23.083Z,994
2022-09-20T03:28:49.701Z,994
2022-09-20T03:31:16.331Z,994
2022-09-20T03:33:42.939Z,994
2022-09-20T03:36:09.587Z,994
2022-09-20T03:38:36.206Z,994
2022-09-20T03:41:02.824Z,994.1
2022-09-20T03:43:29.443Z,994
2022-09-20T03:45:56.057Z,994
2022-09-20T03:48:22.678Z,994
2022-09-20T03:53:15.935Z,994.1
2022-09-20T03:55:41.061Z,994.1
2022-09-20T03:58:06.181Z,994.1
2022-09-20T04:00:32.810Z,994.1
2022-09-20T04:02:59.470Z,994.1
2022-09-20T04:07:52.692Z,994.1
2022-09-20T04:10:19.307Z,994.1
2022-09-20T04:12:45.928Z,994.1
2022-09-20T04:15:12.542Z,994.1
2022-09-20T04:17:39.169Z,994.1
2022-09-20T04:20:05.803Z,994.2
2022-09-20T04:22:32.420Z,994.1
2022-09-20T04:24:59.039Z,994.1
2022-09-20T04:27:25.665Z,994.2
2022-09-20T04:29:50.783Z,994.2
2022-09-20T04:32:17.416Z,994.1
2022-09-20T04:34:44.045Z,994.2
2022-09-20T04:37:10.653Z,994.2
2022-09-20T04:39:37.285Z,994.2
2022-09-20T04:42:03.894Z,994.2
2022-09-20T04:44:30.516Z,994.2
2022-09-20T04:46:57.145Z,994.2
2022-09-20T04:51:50.415Z,994.2
2022-09-20T04:54:17.019Z,994.3
2022-09-20T04:56:43.641Z,994.3
2022-09-20T04:59:08.764Z,994.4
2022-09-20T05:01:35.394Z,994.4
2022-09-20T05:06:27.137Z,994.4
2022-09-20T05:08:53.761Z,994.4
2022-09-20T05:11:20.387Z,994.5
2022-09-20T05:13:47.007Z,994.6
2022-09-20T05:16:13.640Z,994.5
2022-09-20T05:21:06.876Z,994.6
2022-09-20T05:23:33.509Z,994.7
2022-09-20T05:26:00.122Z,994.6
2022-09-20T05:28:26.754Z,994.6
2022-09-20T05:30:53.372Z,994.6
2022-09-20T05:35:45.136Z,994.6
2022-09-20T05:38:10.264Z,994.6
2022-09-20T05:40:36.928Z,994.6
2022-09-20T05:43:03.511Z,994.6
2022-09-20T05:45:30.129Z,994.6
2022-09-20T05:50:21.876Z,994.6
2022-09-20T05:52:48.507Z,994.6
2022-09-20T05:55:15.122Z,994.7
2022-09-20T05:57:40.250Z,994.7
2022-09-20T06:00:06.953Z,994.7
2022-09-20T06:05:00.132Z,994.9
2022-09-20T06:07:26.761Z,994.9
2022-09-20T06:09:51.889Z,994.8
2022-09-20T06:12:17.038Z,994.9
2022-09-20T06:14:43.680Z,994.8
2022-09-20T06:19:36.892Z,994.8
2022-09-20T06:22:03.509Z,994.9
2022-09-20T06:24:30.123Z,994.8
2022-09-20T06:26:56.743Z,994.9
2022-09-20T06:34:16.692Z,994.9
2022-09-20T06:36:43.249Z,995
2022-09-20T06:39:09.859Z,994.9
2022-09-20T06:41:36.491Z,995
2022-09-20T06:44:03.108Z,995
2022-09-20T06:48:56.365Z,995
2022-09-20T06:51:21.470Z,995
2022-09-20T06:53:48.110Z,995
2022-09-20T06:56:14.731Z,995
2022-09-20T06:58:41.357Z,995
2022-09-20T07:01:07.962Z,995
2022-09-20T07:03:34.590Z,995.1
2022-09-20T07:06:01.211Z,995.1
2022-09-20T07:08:27.847Z,995
2022-09-20T07:13:21.087Z,995.1
2022-09-20T07:18:14.344Z,995.1
2022-09-20T07:20:41.072Z,995.1
2022-09-20T07:23:06.073Z,995.2
2022-09-20T07:25:32.704Z,995.2
2022-09-20T07:27:59.325Z,995.3
2022-09-20T07:30:25.959Z,995.3
2022-09-20T07:32:52.569Z,995.3
2022-09-20T07:35:19.205Z,995.4
2022-09-20T07:37:45.834Z,995.4
2022-09-20T07:40:12.451Z,995.4
2022-09-20T07:47:32.325Z,995.4
2022-09-20T07:49:58.928Z,995.4
2022-09-20T07:52:25.548Z,995.4
2022-09-20T07:54:50.683Z,995.5
2022-09-20T07:57:17.321Z,995.6
2022-09-20T08:02:10.593Z,995.5
2022-09-20T08:04:37.180Z,995.5
2022-09-20T08:07:03.837Z,995.5
2022-09-20T08:09:30.438Z,995.5
2022-09-20T08:11:57.051Z,995.5
2022-09-20T08:14:23.689Z,995.5
2022-09-20T08:16:50.288Z,995.5
2022-09-20T08:19:16.916Z,995.6
2022-09-20T08:21:43.536Z,995.6
2022-09-20T08:24:10.160Z,995.6
2022-09-20T08:26:36.786Z,995.6
2022-09-20T08:29:01.909Z,995.6
2022-09-20T08:33:55.150Z,995.6
2022-09-20T08:36:21.784Z,995.6
2022-09-20T08:38:48.399Z,995.6
2022-09-20T08:41:15.025Z,995.6
2022-09-20T08:46:08.292Z,995.6
2022-09-20T08:48:34.883Z,995.6
2022-09-20T08:51:01.505Z,995.6
2022-09-20T08:53:28.153Z,995.6
2022-09-20T08:55:54.762Z,995.6
2022-09-20T08:58:21.376Z,995.5
2022-09-20T09:00:46.564Z,995.6
2022-09-20T09:03:13.131Z,995.6
2022-09-20T09:05:39.746Z,995.6
2022-09-20T09:08:06.378Z,995.6
2022-09-20T09:10:32.995Z,995.6
2022-09-20T09:12:59.629Z,995.5
2022-09-20T09:15:26.248Z,995.5
2022-09-20T09:17:52.866Z,995.4
2022-09-20T09:20:19.497Z,995.5
2022-09-20T09:22:46.124Z,995.5
2022-09-20T09:25:11.266Z,995.5
2022-09-20T09:27:37.913Z,995.5
2022-09-20T09:30:02.995Z,995.5
2022-09-20T09:32:29.623Z,995.5
2022-09-20T09:34:56.236Z,995.5
2022-09-20T09:37:22.860Z,995.4
2022-09-20T09:39:49.500Z,995.4
2022-09-20T09:42:16.117Z,995.5
2022-09-20T09:47:09.356Z,995.4
2022-09-20T09:49:36.076Z,995.4
2022-09-20T09:52:02.648Z,995.4
2022-09-20T09:54:29.349Z,995.4
2022-09-20T09:56:55.856Z,995.4
2022-09-20T09:59:22.618Z,995.4
2022-09-20T10:01:47.583Z,995.4
2022-09-20T10:04:14.265Z,995.3
2022-09-20T10:06:40.836Z,995.4
2022-09-20T10:11:34.081Z,995.4
2022-09-20T10:13:59.211Z,995.4
2022-09-20T10:16:25.822Z,995.4
2022-09-20T10:18:50.964Z,995.4
2022-09-20T10:21:17.578Z,995.3
2022-09-20T10:23:44.250Z,995.3
2022-09-20T10:26:10.814Z,995.3
2022-09-20T10:28:37.448Z,995.3
2022-09-20T10:31:04.068Z,995.3
2022-09-20T10:35:57.357Z,995.3
2022-09-20T10:38:23.981Z,995.3
2022-09-20T10:43:17.189Z,995.2
2022-09-20T10:45:43.811Z,995.3
2022-09-20T10:48:10.432Z,995.3
2022-09-20T10:50:35.769Z,995.3
2022-09-20T10:53:02.188Z,995.3
2022-09-20T10:55:28.827Z,995.3
2022-09-20T10:57:55.421Z,995.3
2022-09-20T11:00:22.092Z,995.3
2022-09-20T11:02:48.691Z,995.3
2022-09-20T11:05:15.290Z,995.2
2022-09-20T11:07:41.905Z,995.2
2022-09-20T11:10:08.547Z,995.3
2022-09-20T11:12:35.154Z,995.3
2022-09-20T11:15:01.826Z,995.3
2022-09-20T11:17:28.405Z,995.3
2022-09-20T11:19:55.028Z,995.3
2022-09-20T11:22:20.159Z,995.3
2022-09-20T11:24:46.774Z,995.3
2022-09-20T11:29:38.530Z,995.2
2022-09-20T11:32:03.659Z,995.2
2022-09-20T11:34:28.785Z,995.2
2022-09-20T11:36:53.912Z,995.2
2022-09-20T11:41:47.266Z,995.2
2022-09-20T11:44:13.775Z,995.2
2022-09-20T11:46:40.402Z,995.2
2022-09-20T11:49:07.039Z,995.1
2022-09-20T11:51:33.665Z,995.1
2022-09-20T11:54:00.280Z,995.2
2022-09-20T11:56:26.896Z,995.1
2022-09-20T11:58:53.525Z,995
2022-09-20T12:01:20.152Z,995
2022-09-20T12:03:46.789Z,995
2022-09-20T12:06:13.403Z,995
2022-09-20T12:11:05.147Z,994.9
2022-09-20T12:13:30.281Z,994.9
2022-09-20T12:15:55.394Z,994.9
2022-09-20T12:18:22.030Z,994.9
2022-09-20T12:20:48.645Z,994.9
2022-09-20T12:23:15.287Z,994.9
2022-09-20T12:25:41.893Z,994.9
2022-09-20T12:28:08.507Z,994.9
2022-09-20T12:30:35.126Z,994.9
2022-09-20T12:33:01.771Z,994.9
2022-09-20T12:35:28.533Z,994.9
2022-09-20T12:37:55.006Z,994.8
2022-09-20T12:40:21.634Z,994.9
2022-09-20T12:42:48.251Z,994.9
2022-09-20T12:45:13.381Z,994.9
2022-09-20T12:47:38.510Z,994.9
2022-09-20T12:50:05.191Z,994.8
2022-09-20T12:52:31.747Z,994.8
2022-09-20T12:54:58.376Z,994.8
2022-09-20T12:57:25.002Z,994.8
2022-09-20T12:59:51.626Z,994.8
2022-09-20T13:02:18.245Z,994.8
2022-09-20T13:04:44.875Z,994.8
2022-09-20T13:07:11.516Z,994.8
2022-09-20T13:09:38.107Z,994.8
2022-09-20T13:12:03.319Z,994.8
2022-09-20T13:14:28.385Z,994.8
2022-09-20T13:16:55.022Z,994.9
2022-09-20T13:19:21.616Z,994.8
2022-09-20T13:21:48.239Z,994.9
2022-09-20T13:24:14.860Z,994.9
2022-09-20T13:26:41.470Z,994.9
2022-09-20T13:29:08.109Z,994.9
2022-09-20T13:31:34.742Z,994.9
2022-09-20T13:34:01.343Z,995
2022-09-20T13:36:27.977Z,995
2022-09-20T13:38:54.593Z,995
2022-09-20T13:41:21.224Z,994.9
2022-09-20T13:43:47.830Z,994.9
2022-09-20T13:46:12.959Z,994.9
2022-09-20T13:48:39.597Z,994.9
2022-09-20T13:51:06.207Z,994.8
2022-09-20T13:53:32.830Z,994.9
2022-09-20T13:55:59.462Z,994.8
2022-09-20T13:58:26.079Z,994.8
2022-09-20T14:00:52.691Z,994.8
2022-09-20T14:03:19.330Z,994.7
2022-09-20T14:05:45.949Z,994.8
2022-09-20T14:08:12.585Z,994.7
2022-09-20T14:10:37.708Z,994.7
2022-09-20T14:13:04.335Z,994.8
2022-09-20T14:15:30.935Z,994.7
2022-09-20T14:17:57.581Z,994.7
2022-09-20T14:20:24.199Z,994.7
2022-09-20T14:22:50.808Z,994.8
2022-09-20T14:25:17.447Z,994.8
2022-09-20T14:27:44.090Z,994.7
2022-09-20T14:30:10.718Z,994.7
2022-09-20T14:32:37.327Z,994.7
2022-09-20T14:35:03.923Z,994.7
2022-09-20T14:37:30.557Z,994.7
2022-09-20T14:39:57.193Z,994.7
2022-09-20T14:42:22.298Z,994.8
2022-09-20T14:44:48.921Z,994.8
2022-09-20T14:47:15.582Z,994.8
2022-09-20T14:49:42.169Z,994.8
2022-09-20T14:52:08.788Z,994.7
2022-09-20T14:54:35.400Z,994.8
2022-09-20T14:57:02.039Z,994.9
2022-09-20T14:59:28.673Z,994.8
2022-09-20T15:01:55.319Z,994.9
2022-09-20T15:04:21.907Z,994.9
2022-09-20T15:06:48.525Z,994.9
2022-09-20T15:09:15.151Z,994.9
2022-09-20T15:11:41.764Z,995
2022-09-20T15:14:06.906Z,995
2022-09-20T15:16:33.583Z,995
2022-09-20T15:19:00.152Z,995
2022-09-20T15:21:26.787Z,995
2022-09-20T15:23:53.392Z,995
2022-09-20T15:26:20.029Z,995
2022-09-20T15:28:46.651Z,994.9
2022-09-20T15:31:13.256Z,994.9
2022-09-20T15:33:39.902Z,994.9
2022-09-20T15:36:06.492Z,994.9
2022-09-20T15:38:33.127Z,994.9
2022-09-20T15:40:59.741Z,995
2022-09-20T15:43:26.389Z,994.9
2022-09-20T15:45:51.501Z,994.9
2022-09-20T15:48:18.121Z,994.9
2022-09-20T15:50:44.747Z,995
2022-09-20T15:53:11.374Z,994.9
2022-09-20T15:55:37.987Z,994.9
2022-09-20T15:58:04.600Z,994.9
2022-09-20T16:00:31.232Z,995
2022-09-20T16:05:24.484Z,994.9
2022-09-20T16:07:51.094Z,994.9
2022-09-20T16:10:17.730Z,994.9
2022-09-20T16:12:44.357Z,994.9
2022-09-20T16:15:10.957Z,994.9
2022-09-20T16:17:36.102Z,994.9
2022-09-20T16:20:02.723Z,995
2022-09-20T16:22:29.335Z,995
2022-09-20T16:24:55.957Z,995
2022-09-20T16:27:22.608Z,995
2022-09-20T16:29:49.200Z,995
2022-09-20T16:32:15.847Z,995
2022-09-20T16:34:42.474Z,995.1
2022-09-20T16:37:09.081Z,995
2022-09-20T16:39:35.733Z,995.1
2022-09-20T16:42:02.320Z,995.1
2022-09-20T16:44:28.946Z,995.1
2022-09-20T16:46:55.563Z,995.1
2022-09-20T16:49:20.683Z,995.2
2022-09-20T16:51:47.323Z,995.2
2022-09-20T16:54:13.935Z,995.2
2022-09-20T16:56:40.563Z,995.2
2022-09-20T16:59:07.191Z,995.3
2022-09-20T17:01:33.814Z,995.2
2022-09-20T17:04:00.467Z,995.3
2022-09-20T17:06:27.071Z,995.2
2022-09-20T17:08:53.681Z,995.3
2022-09-20T17:11:20.339Z,995.3
2022-09-20T17:13:46.945Z,995.3
2022-09-20T17:16:13.540Z,995.3
2022-09-20T17:18:40.188Z,995.3
2022-09-20T17:21:05.294Z,995.3
2022-09-20T17:23:31.904Z,995.4
2022-09-20T17:25:58.549Z,995.3
2022-09-20T17:28:25.165Z,995.4
2022-09-20T17:30:51.777Z,995.5
2022-09-20T17:33:18.408Z,995.5
2022-09-20T17:35:45.045Z,995.5
2022-09-20T17:38:11.644Z,995.6
2022-09-20T17:40:38.310Z,995.6
2022-09-20T17:43:04.902Z,995.6
2022-09-20T17:45:31.515Z,995.6
2022-09-20T17:47:58.142Z,995.6
2022-09-20T17:50:24.826Z,995.6
2022-09-20T17:52:49.889Z,995.6
2022-09-20T17:55:16.508Z,995.7
2022-09-20T17:57:43.141Z,995.7
2022-09-20T18:00:09.760Z,995.8
2022-09-20T18:02:36.395Z,995.8
2022-09-20T18:05:03.005Z,995.8
2022-09-20T18:07:29.626Z,995.9
2022-09-20T18:09:56.271Z,995.9
2022-09-20T18:12:22.905Z,995.9
2022-09-20T18:14:49.573Z,995.9
2022-09-20T18:17:16.196Z,996
2022-09-20T18:19:42.741Z,996
2022-09-20T18:22:09.367Z,996
2022-09-20T18:24:34.492Z,996
2022-09-20T18:27:01.114Z,996.1
2022-09-20T18:29:27.752Z,996.2
2022-09-20T18:31:54.369Z,996.1
2022-09-20T18:34:21.014Z,996.2
2022-09-20T18:36:47.618Z,996.2
2022-09-20T18:39:14.274Z,996.2
2022-09-20T18:41:40.868Z,996.3
2022-09-20T18:44:07.472Z,996.3
2022-09-20T18:46:34.105Z,996.3
2022-09-20T18:49:00.740Z,996.4
2022-09-20T18:51:27.365Z,996.4
2022-09-20T18:53:53.976Z,996.4
2022-09-20T18:56:19.134Z,996.4
2022-09-20T18:58:45.764Z,996.5
2022-09-20T19:01:12.392Z,996.5
2022-09-20T19:03:38.965Z,996.5
2022-09-20T19:06:05.590Z,996.6
2022-09-20T19:08:32.214Z,996.6
2022-09-20T19:10:58.825Z,996.6
2022-09-20T19:13:25.477Z,996.6
2022-09-20T19:15:52.074Z,996.7
2022-09-20T19:18:18.733Z,996.7
2022-09-20T19:20:45.340Z,996.8
2022-09-20T19:23:11.947Z,996.8
2022-09-20T19:25:38.573Z,996.8
2022-09-20T19:28:03.696Z,996.8
2022-09-20T19:30:30.323Z,996.9
2022-09-20T19:32:56.963Z,996.9
2022-09-20T19:35:23.587Z,996.9
2022-09-20T19:37:50.181Z,997
2022-09-20T19:40:16.814Z,996.9
2022-09-20T19:42:43.506Z,997
2022-09-20T19:45:10.054Z,997
2022-09-20T19:47:36.690Z,997
2022-09-20T19:50:03.302Z,997
2022-09-20T19:52:29.961Z,997
2022-09-20T19:54:56.570Z,997
2022-09-20T19:57:23.283Z,997.1
2022-09-20T19:59:48.305Z,997.1
2022-09-20T20:02:14.947Z,997.1
2022-09-20T20:04:41.633Z,997
2022-09-20T20:07:08.209Z,997.1
2022-09-20T20:09:34.840Z,997.1
2022-09-20T20:12:01.479Z,997.1
2022-09-20T20:14:28.036Z,997.1
2022-09-20T20:16:54.663Z,997.1
2022-09-20T20:19:21.287Z,997.2
2022-09-20T20:21:47.898Z,997.3
2022-09-20T20:24:14.539Z,997.2
2022-09-20T20:26:41.153Z,997.2
2022-09-20T20:29:07.793Z,997.2
2022-09-20T20:31:32.907Z,997.3
2022-09-20T20:33:59.535Z,997.3
2022-09-20T20:36:26.212Z,997.2
2022-09-20T20:38:52.834Z,997.2
2022-09-20T20:41:19.387Z,997.3
2022-09-20T20:43:46.029Z,997.3
2022-09-20T20:46:12.642Z,997.3
2022-09-20T20:48:39.266Z,997.3
2022-09-20T20:51:05.957Z,997.3
2022-09-20T20:53:32.509Z,997.3
2022-09-20T20:55:59.131Z,997.3
2022-09-20T20:58:25.750Z,997.3
2022-09-20T21:00:52.375Z,997.3
2022-09-20T21:03:17.507Z,997.4
2022-09-20T21:05:44.132Z,997.3
2022-09-20T21:08:10.744Z,997.3
2022-09-20T21:10:37.369Z,997.3
2022-09-20T21:13:03.995Z,997.3
2022-09-20T21:15:30.630Z,997.4
2022-09-20T21:17:57.264Z,997.3
2022-09-20T21:20:23.903Z,997.4
2022-09-20T21:22:50.502Z,997.4
2022-09-20T21:25:17.115Z,997.4
2022-09-20T21:27:43.727Z,997.4
2022-09-20T21:30:10.359Z,997.4
2022-09-20T21:32:36.994Z,997.4
2022-09-20T21:35:02.107Z,997.4
2022-09-20T21:37:28.736Z,997.5
2022-09-20T21:39:55.354Z,997.5
2022-09-20T21:42:21.979Z,997.5
2022-09-20T21:44:48.600Z,997.5
2022-09-20T21:47:15.224Z,997.5
2022-09-20T21:49:41.840Z,997.5
2022-09-20T21:52:08.469Z,997.5
2022-09-20T21:54:35.104Z,997.4
2022-09-20T21:57:01.722Z,997.4
2022-09-20T21:59:28.343Z,997.4
2022-09-20T22:01:54.960Z,997.4
2022-09-20T22:04:21.592Z,997.4
2022-09-20T22:06:46.806Z,997.4
2022-09-20T22:09:13.327Z,997.3
2022-09-20T22:11:39.960Z,997.4
2022-09-20T22:14:06.590Z,997.3
2022-09-20T22:16:33.203Z,997.3
2022-09-20T22:18:59.827Z,997.3
2022-09-20T22:21:24.957Z,997.3
2022-09-20T22:23:51.588Z,997.3
2022-09-20T22:26:18.208Z,997.3
2022-09-20T22:28:44.828Z,997.3
2022-09-20T22:31:11.450Z,997.3
2022-09-20T22:33:38.078Z,997.2
2022-09-20T22:36:04.700Z,997.3
2022-09-20T22:38:31.322Z,997.2
2022-09-20T22:40:57.937Z,997.2
2022-09-20T22:43:24.561Z,997.2
2022-09-20T22:45:51.190Z,997.2
2022-09-20T22:48:17.813Z,997.2
2022-09-20T22:50:44.444Z,997.3
2022-09-20T22:53:09.568Z,997.3
2022-09-20T22:55:36.195Z,997.3
2022-09-20T22:58:02.814Z,997.3
2022-09-20T23:00:29.431Z,997.3
2022-09-20T23:02:56.057Z,997.3
2022-09-20T23:05:22.685Z,997.3
2022-09-20T23:07:49.308Z,997.3
2022-09-20T23:10:15.925Z,997.3
2022-09-20T23:12:42.562Z,997.3
2022-09-20T23:15:09.178Z,997.3
2022-09-20T23:17:35.790Z,997.4
2022-09-20T23:20:02.414Z,997.4
2022-09-20T23:22:29.051Z,997.4
2022-09-20T23:24:54.162Z,997.4
2022-09-20T23:27:20.798Z,997.4
2022-09-20T23:29:47.408Z,997.5
2022-09-20T23:32:14.039Z,997.5
2022-09-20T23:34:40.657Z,997.4
2022-09-20T23:37:07.290Z,997.5
2022-09-20T23:39:33.904Z,997.4
2022-09-20T23:42:00.537Z,997.4
2022-09-20T23:44:27.151Z,997.4
2022-09-20T23:46:53.769Z,997.5
2022-09-20T23:49:20.401Z,997.5
2022-09-20T23:51:47.054Z,997.5
2022-09-20T23:54:13.657Z,997.5
2022-09-20T23:56:38.796Z,997.4
2022-09-20T23:59:05.391Z,997.5
